createdAt,value
2022-11-10T00:02:08.284Z,78.16
2022-11-10T00:04:34.938Z,77.24
2022-11-10T00:15:05.729Z,76.02
2022-11-10T00:17:38.688Z,75.93
2022-11-10T00:27:51.039Z,75.10
2022-11-10T00:32:58.734Z,75.30
2022-11-10T00:35:25.297Z,75.02
2022-11-10T00:37:52.002Z,75.94
2022-11-10T00:40:19.222Z,75.96
2022-11-10T00:42:45.788Z,75.42
2022-11-10T00:45:13.662Z,75.30
2022-11-10T00:47:40.185Z,75.32
2022-11-10T00:50:07.382Z,75.56
2022-11-10T00:52:33.934Z,75.85
2022-11-10T01:20:37.886Z,77.12
2022-11-10T01:23:04.493Z,76.68
2022-11-10T01:25:31.054Z,76.88
2022-11-10T01:27:57.577Z,76.87
2022-11-10T01:52:52.265Z,77.29
2022-11-10T01:55:18.871Z,76.69
2022-11-10T01:57:45.847Z,76.33
2022-11-10T02:11:42.758Z,76.54
2022-11-10T02:14:09.984Z,76.95
2022-11-10T02:16:57.054Z,76.78
2022-11-10T02:37:50.998Z,76.67
2022-11-10T02:40:36.675Z,76.10
2022-11-10T02:43:09.695Z,75.79
2022-11-10T02:45:42.050Z,75.73
2022-11-10T02:48:09.791Z,75.79
2022-11-10T02:50:36.617Z,75.91
2022-11-10T02:53:09.074Z,75.96
2022-11-10T03:22:37.815Z,76.04
2022-11-10T03:29:08.530Z,75.69
2022-11-10T03:40:09.705Z,75.56
2022-11-10T03:51:34.422Z,74.65
2022-11-10T04:36:41.538Z,74.64
2022-11-10T04:39:09.662Z,75.08
2022-11-10T04:41:36.552Z,74.82
2022-11-10T04:44:26.814Z,74.82
2022-11-10T04:47:13.218Z,75.13
2022-11-10T04:49:40.148Z,74.40
2022-11-10T04:52:06.750Z,73.72
2022-11-10T04:54:33.323Z,73.27
2022-11-10T04:56:59.911Z,73.14
2022-11-10T04:59:26.428Z,73.09
2022-11-10T05:01:52.943Z,73.72
2022-11-10T05:59:48.921Z,74.60
2022-11-10T10:11:34.706Z,68.57
2022-11-10T10:14:10.927Z,68.08
2022-11-10T10:16:57.518Z,68.73
2022-11-10T10:19:48.978Z,67.29
2022-11-10T10:22:18.445Z,66.18
2022-11-10T10:24:45.312Z,66.65
2022-11-10T10:27:23.573Z,67.07
2022-11-10T10:29:52.806Z,66.79
2022-11-10T10:32:22.545Z,66.64
2022-11-10T10:34:49.192Z,66.50
2022-11-10T10:42:32.677Z,64.52
2022-11-10T10:45:14.589Z,64.11
2022-11-10T10:47:41.546Z,64.89
2022-11-10T10:50:26.572Z,65.31
2022-11-10T10:57:12.238Z,66.03
2022-11-10T10:59:38.891Z,66.16
2022-11-10T11:02:25.771Z,64.93
2022-11-10T11:05:14.240Z,64.62
2022-11-10T11:07:41.669Z,63.26
2022-11-10T11:10:22.470Z,62.82
2022-11-10T11:12:49.154Z,62.46
2022-11-10T11:15:28.634Z,61.24
2022-11-10T11:18:04.429Z,61.79
2022-11-10T11:20:48.508Z,61.73
2022-11-10T11:23:27.166Z,62.42
2022-11-10T11:25:59.447Z,63.56
2022-11-10T11:28:40.878Z,63.04
2022-11-10T11:31:32.046Z,63.48
2022-11-10T11:34:11.081Z,62.37
2022-11-10T11:36:59.221Z,62.90
2022-11-10T11:39:50.538Z,63.08
2022-11-10T11:42:43.742Z,61.97
2022-11-10T11:45:24.835Z,62.14
2022-11-10T11:48:23.767Z,60.93
2022-11-10T11:51:10.674Z,61.25
2022-11-10T11:54:14.821Z,62.88
2022-11-10T11:56:43.430Z,63.84
2022-11-10T11:59:18.637Z,63.42
2022-11-10T12:01:54.005Z,64.07
2022-11-10T12:04:42.165Z,65.30
2022-11-10T12:07:32.528Z,65.35
2022-11-10T12:10:18.285Z,65.51
2022-11-10T12:13:03.280Z,65.77
2022-11-10T12:16:02.181Z,65.27
2022-11-10T12:18:36.300Z,64.74
2022-11-10T12:21:20.089Z,64.60
2022-11-10T12:24:09.768Z,65.28
2022-11-10T12:27:08.074Z,64.42
2022-11-10T12:29:41.390Z,63.99
2022-11-10T12:32:34.473Z,62.67
2022-11-10T12:35:14.469Z,62.83
2022-11-10T12:37:43.096Z,64.02
2022-11-10T12:40:17.796Z,64.36
2022-11-10T12:42:47.401Z,63.98
2022-11-10T12:45:16.637Z,64.45
2022-11-10T12:47:45.971Z,65.16
2022-11-10T12:50:51.535Z,65.77
2022-11-10T12:53:29.804Z,66.12
2022-11-10T12:56:02.333Z,66.69
2022-11-10T12:58:29.083Z,68.31
2022-11-10T13:00:59.442Z,68.19
2022-11-10T13:03:32.522Z,68.55
2022-11-10T13:06:02.419Z,69.73
2022-11-10T13:08:32.920Z,72.48
2022-11-10T13:11:11.605Z,70.97
2022-11-10T13:13:43.957Z,71.05
2022-11-10T13:16:10.849Z,71.85
2022-11-10T13:18:37.400Z,71.55
2022-11-10T13:21:04.109Z,70.64
2022-11-10T13:23:50.547Z,70.44
2022-11-10T13:26:39.074Z,70.27
2022-11-10T13:29:34.906Z,69.71
2022-11-10T13:32:07.419Z,69.52
2022-11-10T13:34:36.618Z,69.17
2022-11-10T13:37:24.289Z,69.25
2022-11-10T13:39:51.464Z,68.57
2022-11-10T13:42:20.364Z,68.34
2022-11-10T13:44:47.879Z,68.49
2022-11-10T13:47:35.095Z,69.54
2022-11-10T13:50:10.953Z,69.59
2022-11-10T13:53:21.572Z,68.88
2022-11-10T13:56:00.707Z,69.54
2022-11-10T13:58:31.077Z,69.41
2022-11-10T14:01:16.222Z,70.82
2022-11-10T14:03:46.009Z,69.61
2022-11-10T14:06:44.141Z,70.67
2022-11-10T14:09:29.175Z,70.12
2022-11-10T14:12:02.384Z,70.45
2022-11-10T14:14:58.077Z,70.23
2022-11-10T14:17:29.799Z,69.16
2022-11-10T14:19:56.411Z,71.04
2022-11-10T14:22:29.951Z,70.94
2022-11-10T14:25:04.329Z,69.61
2022-11-10T14:27:36.935Z,72.13
2022-11-10T14:30:05.922Z,73.84
2022-11-10T14:32:32.671Z,72.62
2022-11-10T14:35:00.905Z,73.26
2022-11-10T14:37:39.586Z,73.55
2022-11-10T14:40:15.209Z,74.12
2022-11-10T14:42:41.815Z,74.23
2022-11-10T14:45:19.299Z,73.43
2022-11-10T14:47:54.134Z,74.10
2022-11-10T14:50:25.064Z,74.21
2022-11-10T14:53:29.362Z,74.42
2022-11-10T14:55:56.959Z,74.30
2022-11-10T14:58:25.462Z,74.04
2022-11-10T15:00:52.774Z,75.25
2022-11-10T15:03:34.939Z,75.98
2022-11-10T15:06:03.379Z,75.90
2022-11-10T15:08:50.088Z,75.95
2022-11-10T15:11:35.387Z,75.17
2022-11-10T15:14:01.959Z,75.66
2022-11-10T15:16:36.184Z,76.10
2022-11-10T15:19:23.195Z,74.76
2022-11-10T15:21:52.304Z,75.13
2022-11-10T15:24:19.409Z,76.10
2022-11-10T15:26:46.117Z,74.86
2022-11-10T15:29:23.627Z,74.51
2022-11-10T15:31:53.034Z,73.92
2022-11-10T15:34:41.658Z,74.60
2022-11-10T15:37:30.858Z,75.27
2022-11-10T15:40:45.977Z,75.49
2022-11-10T15:43:22.297Z,75.03
2022-11-10T15:45:54.763Z,76.88
2022-11-10T15:48:21.623Z,76.52
2022-11-10T15:50:52.333Z,76.68
2022-11-10T15:53:25.892Z,76.82
2022-11-10T15:55:52.764Z,77.32
2022-11-10T15:58:22.112Z,78.14
2022-11-10T16:00:49.079Z,76.96
2022-11-10T16:03:19.280Z,75.32
2022-11-10T16:05:46.076Z,76.53
2022-11-10T16:08:17.773Z,76.67
2022-11-10T16:10:52.984Z,75.56
2022-11-10T16:13:24.960Z,75.74
2022-11-10T16:15:52.676Z,75.65
2022-11-10T16:18:22.108Z,76.30
2022-11-10T16:20:50.969Z,76.18
2022-11-10T16:23:17.696Z,77.06
2022-11-10T16:25:46.154Z,76.20
2022-11-10T16:28:21.753Z,76.83
2022-11-10T16:30:48.977Z,76.19
2022-11-10T16:33:17.748Z,75.75
2022-11-10T16:35:47.064Z,77.75
2022-11-10T16:38:20.467Z,76.22
2022-11-10T16:41:11.317Z,75.60
2022-11-10T16:43:37.982Z,76.19
2022-11-10T16:46:13.899Z,76.89
2022-11-10T16:48:45.585Z,77.29
2022-11-10T16:51:14.265Z,77.64
2022-11-10T16:53:41.743Z,77.85
2022-11-10T16:56:15.982Z,77.72
2022-11-10T16:58:42.637Z,78.62
2022-11-10T17:01:22.144Z,78.59
2022-11-10T17:03:52.140Z,78.28
2022-11-10T17:06:21.533Z,77.27
2022-11-10T17:08:51.280Z,75.84
2022-11-10T17:11:18.174Z,75.62
2022-11-10T17:13:44.830Z,75.97
2022-11-10T17:16:31.905Z,76.75
2022-11-10T17:19:05.551Z,76.37
2022-11-10T17:21:36.328Z,77.71
2022-11-10T17:24:04.861Z,77.76
2022-11-10T17:26:31.831Z,77.75
2022-11-10T17:28:58.721Z,77.71
2022-11-10T17:31:25.289Z,77.55
2022-11-10T17:33:51.911Z,77.05
2022-11-10T17:36:21.013Z,76.96
2022-11-10T17:38:47.780Z,76.54
2022-11-10T17:41:16.960Z,75.46
2022-11-10T17:43:45.887Z,76.25
2022-11-10T17:46:14.085Z,76.26
2022-11-10T17:48:40.686Z,76.83
2022-11-10T17:51:13.739Z,75.38
2022-11-10T17:53:40.207Z,75.49
2022-11-10T17:56:07.031Z,75.62
2022-11-10T17:58:33.714Z,75.23
2022-11-10T18:01:02.403Z,74.63
2022-11-10T18:03:29.003Z,75.75
2022-11-10T18:05:55.588Z,75.27
2022-11-10T18:08:24.842Z,74.04
2022-11-10T18:10:53.052Z,73.93
2022-11-10T18:13:20.042Z,73.84
2022-11-10T18:15:48.129Z,73.35
2022-11-10T18:18:16.899Z,73.60
2022-11-10T18:20:47.949Z,73.80
2022-11-10T18:23:20.544Z,72.65
2022-11-10T18:25:47.533Z,74.17
2022-11-10T18:28:16.206Z,74.42
2022-11-10T18:30:43.107Z,74.76
2022-11-10T18:33:14.478Z,74.41
2022-11-10T18:35:43.456Z,74.06
2022-11-10T18:38:12.839Z,73.35
2022-11-10T18:40:41.624Z,73.67
2022-11-10T18:43:08.735Z,72.67
2022-11-10T18:45:36.949Z,73.28
2022-11-10T18:48:04.492Z,73.00
2022-11-10T18:50:31.256Z,74.22
2022-11-10T18:52:57.841Z,72.82
2022-11-10T18:55:24.844Z,72.50
2022-11-10T18:57:51.453Z,74.08
2022-11-10T19:00:19.890Z,74.54
2022-11-10T19:02:48.253Z,75.89
2022-11-10T19:05:14.982Z,74.31
2022-11-10T19:07:42.147Z,74.80
2022-11-10T19:10:13.401Z,74.10
2022-11-10T19:12:41.045Z,74.17
2022-11-10T19:15:08.896Z,73.87
2022-11-10T19:17:35.431Z,74.04
2022-11-10T19:20:02.999Z,74.51
2022-11-10T19:22:34.914Z,73.36
2022-11-10T19:25:07.992Z,73.49
2022-11-10T19:27:35.707Z,72.14
2022-11-10T19:30:02.258Z,73.18
2022-11-10T19:32:29.975Z,72.60
2022-11-10T19:34:56.507Z,72.71
2022-11-10T19:37:24.914Z,73.50
2022-11-10T19:39:51.669Z,73.73
2022-11-10T19:42:18.308Z,73.69
2022-11-10T19:44:44.888Z,72.94
2022-11-10T19:47:11.803Z,74.06
2022-11-10T19:49:42.275Z,74.01
2022-11-10T19:52:08.957Z,74.64
2022-11-10T19:54:36.426Z,75.34
2022-11-10T19:59:38.415Z,73.73
2022-11-10T20:02:12.252Z,72.79
2022-11-10T20:05:00.672Z,71.62
2022-11-10T20:07:49.871Z,72.00
2022-11-10T20:10:16.406Z,73.26
2022-11-10T20:12:48.187Z,73.00
2022-11-10T20:15:17.720Z,72.32
2022-11-10T20:17:44.292Z,72.25
2022-11-10T20:20:11.021Z,70.63
2022-11-10T20:22:37.629Z,71.07
2022-11-10T20:25:04.724Z,70.42
2022-11-10T20:27:31.386Z,69.42
2022-11-10T20:30:00.851Z,69.43
2022-11-10T20:32:28.262Z,68.85
2022-11-10T20:34:54.839Z,69.38
2022-11-10T20:37:21.511Z,69.74
2022-11-10T20:39:48.189Z,69.43
2022-11-10T20:42:14.833Z,70.16
2022-11-10T20:44:41.503Z,71.27
2022-11-10T20:47:08.229Z,72.19
2022-11-10T20:49:34.908Z,73.10
2022-11-10T20:52:01.565Z,74.12
2022-11-10T20:54:28.332Z,75.33
2022-11-10T20:56:54.990Z,75.25
2022-11-10T20:59:21.571Z,74.67
2022-11-10T21:01:48.186Z,74.87
2022-11-10T21:04:14.797Z,75.77
2022-11-10T21:06:41.420Z,75.06
2022-11-10T21:09:08.555Z,75.55
2022-11-10T21:11:53.825Z,75.06
2022-11-10T21:14:20.376Z,74.18
2022-11-10T21:16:47.025Z,73.99
2022-11-10T21:19:13.643Z,73.44
2022-11-10T21:21:40.257Z,73.36
2022-11-10T21:24:07.270Z,73.45
2022-11-10T21:26:35.763Z,72.91
2022-11-10T21:29:02.549Z,72.83
2022-11-10T21:31:30.600Z,72.08
2022-11-10T21:34:00.397Z,72.84
2022-11-10T21:36:29.468Z,73.55
2022-11-10T21:38:57.452Z,74.14
2022-11-10T21:41:24.766Z,74.06
2022-11-10T21:43:51.382Z,73.75
2022-11-10T21:46:18.299Z,73.01
2022-11-10T21:48:44.952Z,73.59
2022-11-10T21:51:16.376Z,73.96
2022-11-10T21:53:43.183Z,73.68
2022-11-10T21:56:11.493Z,73.31
2022-11-10T21:58:41.879Z,72.73
2022-11-10T22:01:14.257Z,72.31
